createdAt,value
2018-12-29T00:00:48.617Z,1023.89
2018-12-29T00:01:48.603Z,1023.87
2018-12-29T00:02:48.571Z,1023.84
2018-12-29T00:03:48.562Z,1023.85
2018-12-29T00:04:48.526Z,1023.85
2018-12-29T00:05:48.510Z,1023.84
2018-12-29T00:06:48.480Z,1023.84
2018-12-29T00:07:48.458Z,1023.86
2018-12-29T00:08:48.439Z,1023.82
2018-12-29T00:09:48.410Z,1023.83
2018-12-29T00:10:48.394Z,1023.80
2018-12-29T00:11:48.362Z,1023.76
2018-12-29T00:12:48.341Z,1023.74
2018-12-29T00:13:48.318Z,1023.72
2018-12-29T00:14:54.819Z,1023.76
2018-12-29T00:15:48.281Z,1023.78
2018-12-29T00:16:48.250Z,1023.79
2018-12-29T00:17:48.225Z,1023.82
2018-12-29T00:18:48.203Z,1023.83
2018-12-29T00:19:48.181Z,1023.82
2018-12-29T00:20:48.172Z,1023.81
2018-12-29T00:21:48.137Z,1023.84
2018-12-29T00:22:48.108Z,1023.82
2018-12-29T00:23:48.088Z,1023.81
2018-12-29T00:24:48.079Z,1023.83
2018-12-29T00:25:48.050Z,1023.77
2018-12-29T00:26:48.022Z,1023.76
2018-12-29T00:27:48.005Z,1023.77
2018-12-29T00:28:47.980Z,1023.81
2018-12-29T00:29:47.951Z,1023.77
2018-12-29T00:30:47.929Z,1023.79
2018-12-29T00:31:47.907Z,1023.79
2018-12-29T00:32:47.883Z,1023.86
2018-12-29T00:33:47.857Z,1023.83
2018-12-29T00:34:47.842Z,1023.84
2018-12-29T00:35:47.811Z,1023.85
2018-12-29T00:36:47.789Z,1023.82
2018-12-29T00:37:47.762Z,1023.82
2018-12-29T00:38:47.741Z,1023.79
2018-12-29T00:39:47.720Z,1023.80
2018-12-29T00:40:47.692Z,1023.84
2018-12-29T00:41:47.677Z,1023.84
2018-12-29T00:42:47.647Z,1023.81
2018-12-29T00:43:47.633Z,1023.84
2018-12-29T00:44:47.606Z,1023.82
2018-12-29T00:45:47.579Z,1023.79
2018-12-29T00:46:47.556Z,1023.81
2018-12-29T00:47:47.533Z,1023.84
2018-12-29T00:48:47.509Z,1023.84
2018-12-29T00:49:47.487Z,1023.84
2018-12-29T00:50:47.465Z,1023.83
2018-12-29T00:51:47.441Z,1023.86
2018-12-29T00:52:47.418Z,1023.84
2018-12-29T00:53:47.394Z,1023.88
2018-12-29T00:54:47.377Z,1023.93
2018-12-29T00:55:47.356Z,1023.95
2018-12-29T00:56:47.328Z,1024.00
2018-12-29T00:57:47.302Z,1023.97
2018-12-29T00:58:47.278Z,1023.96
2018-12-29T00:59:47.258Z,1023.99
2018-12-29T01:00:47.233Z,1023.95
2018-12-29T01:01:47.218Z,1023.95
2018-12-29T01:02:47.255Z,1023.95
2018-12-29T01:03:47.176Z,1023.97
2018-12-29T01:04:47.145Z,1023.98
2018-12-29T01:05:47.118Z,1023.96
2018-12-29T01:06:47.093Z,1023.97
2018-12-29T01:07:47.072Z,1023.99
2018-12-29T01:08:47.048Z,1024.01
2018-12-29T01:09:47.031Z,1023.97
2018-12-29T01:10:47.012Z,1023.96
2018-12-29T01:11:46.986Z,1023.96
2018-12-29T01:12:46.955Z,1023.92
2018-12-29T01:13:46.932Z,1023.92
2018-12-29T01:14:46.909Z,1023.91
2018-12-29T01:15:46.886Z,1023.90
2018-12-29T01:16:46.869Z,1023.93
2018-12-29T01:17:46.848Z,1023.91
2018-12-29T01:18:46.819Z,1023.92
2018-12-29T01:19:46.852Z,1023.95
2018-12-29T01:20:46.773Z,1023.93
2018-12-29T01:21:46.753Z,1023.94
2018-12-29T01:22:46.727Z,1024.02
2018-12-29T01:23:46.703Z,1023.98
2018-12-29T01:24:46.684Z,1023.98
2018-12-29T01:25:46.663Z,1023.94
2018-12-29T01:26:46.632Z,1023.98
2018-12-29T01:27:46.615Z,1023.94
2018-12-29T01:28:46.593Z,1023.97
2018-12-29T01:29:46.563Z,1024.00
2018-12-29T01:30:46.547Z,1023.99
2018-12-29T01:31:46.523Z,1024.05
2018-12-29T01:32:46.494Z,1024.07
2018-12-29T01:33:46.473Z,1024.11
2018-12-29T01:34:46.450Z,1024.11
2018-12-29T01:35:46.427Z,1024.10
2018-12-29T01:36:46.404Z,1024.11
2018-12-29T01:37:46.381Z,1024.10
2018-12-29T01:38:46.358Z,1024.12
2018-12-29T01:39:46.349Z,1024.15
2018-12-29T01:40:46.312Z,1024.11
2018-12-29T01:41:46.288Z,1024.17
2018-12-29T01:42:46.266Z,1024.18
2018-12-29T01:43:46.245Z,1024.12
2018-12-29T01:44:46.224Z,1024.12
2018-12-29T01:45:46.205Z,1024.12
2018-12-29T01:46:46.174Z,1024.21
2018-12-29T01:47:47.026Z,1024.16
2018-12-29T01:48:46.129Z,1024.14
2018-12-29T01:49:46.104Z,1024.17
2018-12-29T01:50:46.083Z,1024.17
2018-12-29T01:51:46.063Z,1024.13
2018-12-29T01:52:46.040Z,1024.13
2018-12-29T01:53:46.015Z,1024.14
2018-12-29T01:54:45.993Z,1024.13
2018-12-29T01:55:45.971Z,1024.09
2018-12-29T01:56:45.949Z,1024.08
2018-12-29T01:57:45.922Z,1024.08
2018-12-29T01:58:45.909Z,1024.15
2018-12-29T01:59:45.878Z,1024.14
2018-12-29T02:00:45.861Z,1024.18
2018-12-29T02:01:45.830Z,1024.13
2018-12-29T02:02:45.811Z,1024.17
2018-12-29T02:03:45.795Z,1024.13
2018-12-29T02:04:45.764Z,1024.10
2018-12-29T02:05:45.747Z,1024.10
2018-12-29T02:06:45.718Z,1024.14
2018-12-29T02:07:45.697Z,1024.11
2018-12-29T02:08:45.672Z,1024.13
2018-12-29T02:09:45.651Z,1024.14
2018-12-29T02:10:45.630Z,1024.15
2018-12-29T02:11:45.605Z,1024.15
2018-12-29T02:12:45.590Z,1024.15
2018-12-29T02:13:45.559Z,1024.20
2018-12-29T02:14:45.537Z,1024.17
2018-12-29T02:15:45.514Z,1024.18
2018-12-29T02:16:45.499Z,1024.15
2018-12-29T02:17:45.467Z,1024.16
2018-12-29T02:18:45.448Z,1024.19
2018-12-29T02:19:45.423Z,1024.18
2018-12-29T02:20:45.400Z,1024.16
2018-12-29T02:21:45.373Z,1024.17
2018-12-29T02:22:45.352Z,1024.18
2018-12-29T02:23:45.330Z,1024.16
2018-12-29T02:24:45.311Z,1024.17
2018-12-29T02:25:45.282Z,1024.16
2018-12-29T02:26:45.263Z,1024.16
2018-12-29T02:27:45.242Z,1024.17
2018-12-29T02:28:45.215Z,1024.13
2018-12-29T02:29:45.191Z,1024.13
2018-12-29T02:30:45.170Z,1024.17
2018-12-29T02:31:45.151Z,1024.16
2018-12-29T02:32:45.124Z,1024.18
2018-12-29T02:33:45.101Z,1024.21
2018-12-29T02:34:45.081Z,1024.20
2018-12-29T02:35:45.055Z,1024.19
2018-12-29T02:36:45.036Z,1024.20
2018-12-29T02:37:45.010Z,1024.18
2018-12-29T02:38:44.989Z,1024.16
2018-12-29T02:39:44.962Z,1024.17
2018-12-29T02:40:44.942Z,1024.19
2018-12-29T02:41:44.916Z,1024.17
2018-12-29T02:42:44.895Z,1024.18
2018-12-29T02:43:44.872Z,1024.14
2018-12-29T02:44:44.852Z,1024.15
2018-12-29T02:45:44.828Z,1024.20
2018-12-29T02:46:44.808Z,1024.17
2018-12-29T02:47:44.784Z,1024.11
2018-12-29T02:48:44.758Z,1024.18
2018-12-29T02:49:44.739Z,1024.17
2018-12-29T02:50:44.712Z,1024.20
2018-12-29T02:51:44.696Z,1024.20
2018-12-29T02:52:44.667Z,1024.18
2018-12-29T02:53:44.646Z,1024.15
2018-12-29T02:54:44.619Z,1024.16
2018-12-29T02:55:44.601Z,1024.09
2018-12-29T02:56:44.576Z,1024.16
2018-12-29T02:57:44.552Z,1024.11
2018-12-29T02:58:44.533Z,1024.08
2018-12-29T02:59:44.507Z,1024.07
2018-12-29T03:00:44.487Z,1024.08
2018-12-29T03:01:44.461Z,1024.09
2018-12-29T03:02:44.448Z,1024.05
2018-12-29T03:03:44.416Z,1024.04
2018-12-29T03:04:44.393Z,1024.04
2018-12-29T03:05:44.372Z,1024.05
2018-12-29T03:06:44.351Z,1024.07
2018-12-29T03:07:44.324Z,1024.05
2018-12-29T03:08:44.311Z,1024.09
2018-12-29T03:09:44.288Z,1024.07
2018-12-29T03:10:44.258Z,1024.10
2018-12-29T03:11:44.235Z,1024.11
2018-12-29T03:12:44.214Z,1024.09
2018-12-29T03:13:44.190Z,1024.11
2018-12-29T03:14:44.169Z,1024.05
2018-12-29T03:15:44.150Z,1024.08
2018-12-29T03:16:44.126Z,1024.09
2018-12-29T03:17:44.103Z,1024.08
2018-12-29T03:18:44.075Z,1024.09
2018-12-29T03:19:44.054Z,1024.10
2018-12-29T03:20:44.030Z,1024.07
2018-12-29T03:21:44.012Z,1024.06
2018-12-29T03:22:43.987Z,1024.04
2018-12-29T03:23:43.963Z,1024.08
2018-12-29T03:24:43.939Z,1024.13
2018-12-29T03:25:43.919Z,1024.12
2018-12-29T03:26:43.892Z,1024.10
2018-12-29T03:27:43.870Z,1024.08
2018-12-29T03:28:43.850Z,1024.04
2018-12-29T03:29:43.825Z,1024.02
2018-12-29T03:30:43.807Z,1023.96
2018-12-29T03:31:43.780Z,1023.93
2018-12-29T03:32:43.757Z,1023.98
2018-12-29T03:33:43.737Z,1023.95
2018-12-29T03:34:43.712Z,1023.95
2018-12-29T03:35:43.687Z,1023.92
2018-12-29T03:36:43.666Z,1023.98
2018-12-29T03:37:43.642Z,1023.95
2018-12-29T03:38:43.629Z,1023.92
2018-12-29T03:39:43.596Z,1023.95
2018-12-29T03:40:43.579Z,1023.98
2018-12-29T03:41:43.552Z,1023.92
2018-12-29T03:42:43.575Z,1023.94
2018-12-29T03:43:43.504Z,1023.94
2018-12-29T03:44:43.483Z,1023.92
2018-12-29T03:45:49.063Z,1023.90
2018-12-29T03:46:43.438Z,1023.95
2018-12-29T03:47:43.414Z,1023.88
2018-12-29T03:48:43.393Z,1023.91
2018-12-29T03:49:43.379Z,1023.87
2018-12-29T03:50:43.351Z,1023.91
2018-12-29T03:51:43.327Z,1023.90
2018-12-29T03:52:43.305Z,1023.83
2018-12-29T03:53:43.285Z,1023.85
2018-12-29T03:54:43.255Z,1023.81
2018-12-29T03:55:43.237Z,1023.78
2018-12-29T03:56:43.211Z,1023.77
2018-12-29T03:57:43.187Z,1023.71
2018-12-29T03:58:43.165Z,1023.76
2018-12-29T03:59:43.141Z,1023.73
2018-12-29T04:00:43.118Z,1023.77
2018-12-29T04:01:43.104Z,1023.77
2018-12-29T04:02:43.084Z,1023.79
2018-12-29T04:03:43.050Z,1023.74
2018-12-29T04:04:43.028Z,1023.75
2018-12-29T04:05:43.006Z,1023.80
2018-12-29T04:06:42.980Z,1023.76
2018-12-29T04:07:42.962Z,1023.78
2018-12-29T04:08:42.934Z,1023.80
2018-12-29T04:09:42.915Z,1023.73
2018-12-29T04:10:42.888Z,1023.70
2018-12-29T04:11:42.867Z,1023.75
2018-12-29T04:12:42.841Z,1023.70
2018-12-29T04:13:42.819Z,1023.71
2018-12-29T04:14:42.800Z,1023.72
2018-12-29T04:15:42.782Z,1023.71
2018-12-29T04:16:42.754Z,1023.68
2018-12-29T04:17:42.730Z,1023.67
2018-12-29T04:18:42.708Z,1023.72
2018-12-29T04:19:42.685Z,1023.64
2018-12-29T04:20:42.664Z,1023.60
2018-12-29T04:21:42.639Z,1023.57
2018-12-29T04:22:42.616Z,1023.59
2018-12-29T04:23:42.599Z,1023.59
2018-12-29T04:24:42.571Z,1023.59
2018-12-29T04:25:42.548Z,1023.58
2018-12-29T04:26:42.528Z,1023.59
2018-12-29T04:27:42.509Z,1023.57
2018-12-29T04:28:42.484Z,1023.54
2018-12-29T04:29:42.455Z,1023.53
2018-12-29T04:30:42.433Z,1023.52
2018-12-29T04:31:42.412Z,1023.50
2018-12-29T04:32:42.396Z,1023.51
2018-12-29T04:33:42.370Z,1023.45
2018-12-29T04:34:42.347Z,1023.50
2018-12-29T04:35:42.319Z,1023.45
2018-12-29T04:36:42.298Z,1023.43
2018-12-29T04:37:42.274Z,1023.38
2018-12-29T04:38:42.252Z,1023.35
2018-12-29T04:39:42.233Z,1023.35
2018-12-29T04:40:42.209Z,1023.38
2018-12-29T04:41:42.184Z,1023.34
2018-12-29T04:42:42.161Z,1023.35
2018-12-29T04:43:42.143Z,1023.34
2018-12-29T04:44:42.115Z,1023.34
2018-12-29T04:45:42.091Z,1023.36
2018-12-29T04:46:42.067Z,1023.30
2018-12-29T04:47:42.045Z,1023.25
2018-12-29T04:48:42.029Z,1023.23
2018-12-29T04:49:42.000Z,1023.20
2018-12-29T04:50:41.978Z,1023.19
2018-12-29T04:51:41.954Z,1023.29
2018-12-29T04:52:41.932Z,1023.29
2018-12-29T04:53:41.909Z,1023.20
2018-12-29T04:54:41.886Z,1023.20
2018-12-29T04:55:41.862Z,1023.23
2018-12-29T04:56:41.842Z,1023.30
2018-12-29T04:57:41.816Z,1023.24
2018-12-29T04:58:41.796Z,1023.26
2018-12-29T04:59:41.769Z,1023.29
2018-12-29T05:00:41.746Z,1023.28
2018-12-29T05:01:41.722Z,1023.35
2018-12-29T05:02:41.704Z,1023.30
2018-12-29T05:03:41.679Z,1023.34
2018-12-29T05:04:41.656Z,1023.30
2018-12-29T05:05:41.632Z,1023.29
2018-12-29T05:06:41.610Z,1023.32
2018-12-29T05:07:41.589Z,1023.27
2018-12-29T05:08:41.567Z,1023.40
2018-12-29T05:09:41.544Z,1023.39
2018-12-29T05:10:41.516Z,1023.44
2018-12-29T05:11:41.508Z,1023.48
2018-12-29T05:12:41.474Z,1023.49
2018-12-29T05:13:41.451Z,1023.54
2018-12-29T05:14:41.427Z,1023.54
2018-12-29T05:15:41.404Z,1023.53
2018-12-29T05:16:41.385Z,1023.52
2018-12-29T05:17:41.356Z,1023.52
2018-12-29T05:18:41.337Z,1023.48
2018-12-29T05:19:41.319Z,1023.54
2018-12-29T05:20:41.289Z,1023.54
2018-12-29T05:21:41.270Z,1023.53
2018-12-29T05:22:41.248Z,1023.49
2018-12-29T05:23:41.221Z,1023.49
2018-12-29T05:24:41.199Z,1023.49
2018-12-29T05:25:41.179Z,1023.50
2018-12-29T05:26:41.152Z,1023.58
2018-12-29T05:27:41.134Z,1023.59
2018-12-29T05:28:41.107Z,1023.56
2018-12-29T05:29:41.084Z,1023.55
2018-12-29T05:30:41.061Z,1023.57
2018-12-29T05:31:41.038Z,1023.58
2018-12-29T05:32:41.019Z,1023.58
2018-12-29T05:33:41.059Z,1023.61
2018-12-29T05:34:40.985Z,1023.63
2018-12-29T05:35:40.949Z,1023.64
2018-12-29T05:36:40.927Z,1023.69
2018-12-29T05:37:40.905Z,1023.67
2018-12-29T05:38:40.881Z,1023.74
2018-12-29T05:39:40.859Z,1023.72
2018-12-29T05:40:40.839Z,1023.69
2018-12-29T05:41:40.812Z,1023.72
2018-12-29T05:42:40.790Z,1023.71
2018-12-29T05:43:40.767Z,1023.76
2018-12-29T05:44:40.745Z,1023.77
2018-12-29T05:45:40.727Z,1023.77
2018-12-29T05:46:40.702Z,1023.79
2018-12-29T05:47:40.686Z,1023.82
2018-12-29T05:48:40.664Z,1023.81
2018-12-29T05:49:40.633Z,1023.79
2018-12-29T05:50:40.609Z,1023.83
2018-12-29T05:51:40.588Z,1023.82
2018-12-29T05:52:40.563Z,1023.80
2018-12-29T05:53:40.539Z,1023.83
2018-12-29T05:54:40.515Z,1023.85
2018-12-29T05:55:40.497Z,1023.88
2018-12-29T05:56:40.474Z,1023.88
2018-12-29T05:57:40.447Z,1023.88
2018-12-29T05:58:40.431Z,1023.86
2018-12-29T05:59:40.403Z,1023.85
2018-12-29T06:00:40.380Z,1023.83
2018-12-29T06:01:40.358Z,1023.89
2018-12-29T06:02:40.334Z,1023.86
2018-12-29T06:03:40.312Z,1023.83
2018-12-29T06:04:40.296Z,1023.80
2018-12-29T06:05:40.267Z,1023.84
2018-12-29T06:06:40.249Z,1023.82
2018-12-29T06:07:40.220Z,1023.83
2018-12-29T06:08:40.199Z,1023.77
2018-12-29T06:09:40.174Z,1023.83
2018-12-29T06:10:40.152Z,1023.87
2018-12-29T06:11:40.130Z,1023.84
2018-12-29T06:12:40.114Z,1023.87
2018-12-29T06:13:40.083Z,1023.88
2018-12-29T06:14:40.063Z,1023.82
2018-12-29T06:15:40.046Z,1023.84
2018-12-29T06:16:40.021Z,1023.83
2018-12-29T06:17:39.991Z,1023.90
2018-12-29T06:18:39.971Z,1023.89
2018-12-29T06:19:39.951Z,1023.93
2018-12-29T06:20:39.923Z,1023.93
2018-12-29T06:21:39.900Z,1023.89
2018-12-29T06:22:39.881Z,1023.89
2018-12-29T06:23:39.856Z,1023.96
2018-12-29T06:24:39.833Z,1023.93
2018-12-29T06:25:39.818Z,1023.95
2018-12-29T06:26:39.789Z,1023.90
2018-12-29T06:27:39.767Z,1023.91
2018-12-29T06:28:39.743Z,1023.88
2018-12-29T06:29:39.720Z,1023.88
2018-12-29T06:30:39.695Z,1023.90
2018-12-29T06:31:39.673Z,1023.85
2018-12-29T06:32:39.650Z,1023.85
2018-12-29T06:33:39.625Z,1023.80
2018-12-29T06:34:39.605Z,1023.81
2018-12-29T06:35:39.589Z,1023.82
2018-12-29T06:36:39.560Z,1023.87
2018-12-29T06:37:39.534Z,1023.87
2018-12-29T06:38:39.515Z,1023.82
2018-12-29T06:39:39.491Z,1023.86
2018-12-29T06:40:39.474Z,1023.87
2018-12-29T06:41:39.446Z,1023.92
2018-12-29T06:42:39.423Z,1023.92
2018-12-29T06:43:39.398Z,1023.89
2018-12-29T06:44:39.389Z,1023.91
2018-12-29T06:45:39.354Z,1023.96
2018-12-29T06:46:39.331Z,1023.90
2018-12-29T06:47:39.309Z,1023.93
2018-12-29T06:48:39.299Z,1023.87
2018-12-29T06:49:39.263Z,1023.89
2018-12-29T06:50:39.242Z,1023.89
2018-12-29T06:51:39.310Z,1023.86
2018-12-29T06:52:39.201Z,1023.85
2018-12-29T06:53:39.174Z,1023.92
2018-12-29T06:54:39.150Z,1023.86
2018-12-29T06:55:39.129Z,1023.87
2018-12-29T06:56:39.110Z,1023.90
2018-12-29T06:57:39.086Z,1023.87
2018-12-29T06:58:39.064Z,1023.87
2018-12-29T06:59:39.039Z,1023.91
2018-12-29T07:00:39.017Z,1023.95
2018-12-29T07:01:38.996Z,1023.97
2018-12-29T07:02:38.968Z,1024.03
2018-12-29T07:03:38.947Z,1023.99
2018-12-29T07:04:38.943Z,1023.98
2018-12-29T07:05:38.899Z,1024.02
2018-12-29T07:06:38.881Z,1024.05
2018-12-29T07:07:38.857Z,1024.04
2018-12-29T07:08:38.836Z,1024.02
2018-12-29T07:09:38.809Z,1024.00
2018-12-29T07:10:38.787Z,1024.03
2018-12-29T07:11:38.765Z,1024.03
2018-12-29T07:12:38.742Z,1024.05
2018-12-29T07:13:38.720Z,1024.04
2018-12-29T07:14:38.695Z,1024.03
2018-12-29T07:15:38.674Z,1024.02
2018-12-29T07:16:42.242Z,1023.98
2018-12-29T07:17:38.627Z,1024.02
2018-12-29T07:18:38.605Z,1023.97
2018-12-29T07:19:38.584Z,1023.98
2018-12-29T07:20:38.563Z,1024.00
2018-12-29T07:21:38.537Z,1023.98
2018-12-29T07:22:38.516Z,1024.01
2018-12-29T07:23:38.492Z,1024.01
2018-12-29T07:24:38.470Z,1024.02
2018-12-29T07:25:38.449Z,1024.03
2018-12-29T07:26:38.427Z,1024.03
2018-12-29T07:27:38.405Z,1024.09
2018-12-29T07:28:38.382Z,1024.17
2018-12-29T07:29:38.580Z,1024.09
2018-12-29T07:30:38.337Z,1024.14
2018-12-29T07:31:38.310Z,1024.16
2018-12-29T07:32:38.287Z,1024.17
2018-12-29T07:33:38.267Z,1024.15
2018-12-29T07:34:38.251Z,1024.21
2018-12-29T07:35:38.223Z,1024.21
2018-12-29T07:36:38.197Z,1024.24
2018-12-29T07:37:38.177Z,1024.20
2018-12-29T07:38:38.149Z,1024.22
2018-12-29T07:39:38.127Z,1024.18
2018-12-29T07:40:38.111Z,1024.19
2018-12-29T07:41:38.623Z,1024.20
2018-12-29T07:42:38.060Z,1024.17
2018-12-29T07:43:38.040Z,1024.16
2018-12-29T07:44:38.021Z,1024.16
2018-12-29T07:45:37.992Z,1024.11
2018-12-29T07:46:37.971Z,1024.14
2018-12-29T07:47:37.949Z,1024.11
2018-12-29T07:48:37.932Z,1024.11
2018-12-29T07:49:37.902Z,1024.08
2018-12-29T07:50:37.880Z,1024.15
2018-12-29T07:51:37.857Z,1024.11
2018-12-29T07:52:37.834Z,1024.13
2018-12-29T07:53:37.811Z,1024.07
2018-12-29T07:54:37.788Z,1024.04
2018-12-29T07:55:37.769Z,1024.08
2018-12-29T07:56:37.754Z,1024.04
2018-12-29T07:57:37.717Z,1024.00
2018-12-29T07:58:37.699Z,1024.02
2018-12-29T07:59:37.677Z,1023.99
2018-12-29T08:00:37.653Z,1024.00
2018-12-29T08:01:37.628Z,1024.03
2018-12-29T08:02:37.608Z,1024.02
2018-12-29T08:03:37.585Z,1023.95
2018-12-29T08:04:37.560Z,1024.02
2018-12-29T08:05:37.538Z,1024.08
2018-12-29T08:06:37.518Z,1024.06
2018-12-29T08:07:37.495Z,1024.05
2018-12-29T08:08:37.471Z,1024.01
2018-12-29T08:09:37.451Z,1024.07
2018-12-29T08:10:38.834Z,1024.01
2018-12-29T08:11:37.402Z,1024.00
2018-12-29T08:12:37.383Z,1024.00
2018-12-29T08:13:37.356Z,1023.94
2018-12-29T08:14:37.342Z,1023.96
2018-12-29T08:15:37.314Z,1023.89
2018-12-29T08:16:37.293Z,1023.88
2018-12-29T08:17:37.266Z,1023.92
2018-12-29T08:18:37.253Z,1023.87
2018-12-29T08:19:37.228Z,1023.85
2018-12-29T08:20:37.199Z,1023.87
2018-12-29T08:21:37.183Z,1023.79
2018-12-29T08:22:37.154Z,1023.83
2018-12-29T08:23:37.136Z,1023.77
2018-12-29T08:24:37.115Z,1023.77
2018-12-29T08:25:37.091Z,1023.81
2018-12-29T08:26:37.067Z,1023.78
2018-12-29T08:27:37.050Z,1023.80
2018-12-29T08:28:37.023Z,1023.76
2018-12-29T08:29:36.998Z,1023.80
2018-12-29T08:30:36.974Z,1023.72
2018-12-29T08:31:36.955Z,1023.76
2018-12-29T08:32:36.931Z,1023.74
2018-12-29T08:33:36.905Z,1023.73
2018-12-29T08:34:36.880Z,1023.72
2018-12-29T08:35:36.859Z,1023.74
2018-12-29T08:36:36.837Z,1023.71
2018-12-29T08:37:36.814Z,1023.74
2018-12-29T08:38:36.791Z,1023.67
2018-12-29T08:39:36.826Z,1023.71
2018-12-29T08:40:36.747Z,1023.74
2018-12-29T08:41:36.726Z,1023.69
2018-12-29T08:42:36.699Z,1023.68
2018-12-29T08:43:36.676Z,1023.67
2018-12-29T08:44:36.658Z,1023.61
2018-12-29T08:45:36.642Z,1023.66
2018-12-29T08:46:36.609Z,1023.59
2018-12-29T08:47:36.587Z,1023.60
2018-12-29T08:48:36.568Z,1023.64
2018-12-29T08:49:36.546Z,1023.63
2018-12-29T08:50:36.521Z,1023.58
2018-12-29T08:51:36.498Z,1023.57
2018-12-29T08:52:36.474Z,1023.59
2018-12-29T08:53:36.450Z,1023.61
2018-12-29T08:54:36.428Z,1023.57
2018-12-29T08:55:36.406Z,1023.55
2018-12-29T08:56:37.239Z,1023.59
2018-12-29T08:57:36.362Z,1023.60
2018-12-29T08:58:36.340Z,1023.61
2018-12-29T08:59:36.317Z,1023.66
2018-12-29T09:00:36.295Z,1023.64
2018-12-29T09:01:36.275Z,1023.57
2018-12-29T09:02:36.249Z,1023.63
2018-12-29T09:03:36.230Z,1023.64
2018-12-29T09:04:36.206Z,1023.61
2018-12-29T09:05:36.181Z,1023.62
2018-12-29T09:06:36.160Z,1023.59
2018-12-29T09:07:36.138Z,1023.63
2018-12-29T09:08:36.116Z,1023.70
2018-12-29T09:09:36.104Z,1023.67
2018-12-29T09:10:36.070Z,1023.66
2018-12-29T09:11:36.055Z,1023.64
2018-12-29T09:12:36.032Z,1023.58
2018-12-29T09:13:36.012Z,1023.58
2018-12-29T09:14:35.982Z,1023.62
2018-12-29T09:15:35.961Z,1023.61
2018-12-29T09:16:35.938Z,1023.64
2018-12-29T09:17:35.913Z,1023.65
2018-12-29T09:18:35.894Z,1023.63
2018-12-29T09:19:35.871Z,1023.61
2018-12-29T09:20:35.851Z,1023.61
2018-12-29T09:21:35.830Z,1023.61
2018-12-29T09:22:35.804Z,1023.61
2018-12-29T09:23:35.779Z,1023.59
2018-12-29T09:24:35.755Z,1023.59
2018-12-29T09:25:35.733Z,1023.66
2018-12-29T09:26:35.719Z,1023.61
2018-12-29T09:27:35.705Z,1023.59
2018-12-29T09:28:35.676Z,1023.63
2018-12-29T09:29:35.646Z,1023.55
2018-12-29T09:30:35.630Z,1023.57
2018-12-29T09:31:35.598Z,1023.58
2018-12-29T09:32:35.583Z,1023.49
2018-12-29T09:33:35.555Z,1023.46
2018-12-29T09:34:35.539Z,1023.48
2018-12-29T09:35:35.513Z,1023.43
2018-12-29T09:36:35.488Z,1023.43
2018-12-29T09:37:35.467Z,1023.42
2018-12-29T09:38:35.447Z,1023.42
2018-12-29T09:39:35.424Z,1023.32
2018-12-29T09:40:35.399Z,1023.34
2018-12-29T09:41:35.378Z,1023.27
2018-12-29T09:42:35.362Z,1023.25
2018-12-29T09:43:35.330Z,1023.24
2018-12-29T09:44:35.312Z,1023.22
2018-12-29T09:45:35.288Z,1023.22
2018-12-29T09:46:35.265Z,1023.21
2018-12-29T09:47:35.256Z,1023.16
2018-12-29T09:48:35.228Z,1023.12
2018-12-29T09:49:35.198Z,1023.12
2018-12-29T09:50:35.191Z,1023.08
2018-12-29T09:51:35.152Z,1023.07
2018-12-29T09:52:35.133Z,1023.06
2018-12-29T09:53:35.120Z,1023.04
2018-12-29T09:54:35.088Z,1023.04
2018-12-29T09:55:35.078Z,1023.08
2018-12-29T09:56:35.049Z,1023.06
2018-12-29T09:57:35.027Z,1022.98
2018-12-29T09:58:35.001Z,1022.99
2018-12-29T09:59:34.978Z,1022.97
2018-12-29T10:00:34.959Z,1022.97
2018-12-29T10:01:34.933Z,1022.94
2018-12-29T10:02:34.911Z,1022.91
2018-12-29T10:03:34.889Z,1022.90
2018-12-29T10:04:34.869Z,1022.86
2018-12-29T10:05:34.844Z,1022.86
2018-12-29T10:06:34.831Z,1022.88
2018-12-29T10:07:34.809Z,1022.84
2018-12-29T10:08:34.791Z,1022.86
2018-12-29T10:09:34.761Z,1022.86
2018-12-29T10:10:34.747Z,1022.82
2018-12-29T10:11:34.718Z,1022.82
2018-12-29T10:12:34.690Z,1022.75
2018-12-29T10:13:34.672Z,1022.78
2018-12-29T10:14:34.652Z,1022.66
2018-12-29T10:15:34.623Z,1022.64
2018-12-29T10:16:34.604Z,1022.65
2018-12-29T10:17:34.585Z,1022.57
2018-12-29T10:18:34.565Z,1022.51
2018-12-29T10:19:34.540Z,1022.44
2018-12-29T10:20:34.514Z,1022.48
2018-12-29T10:21:34.495Z,1022.42
2018-12-29T10:22:34.474Z,1022.39
2018-12-29T10:23:34.452Z,1022.34
2018-12-29T10:24:34.435Z,1022.29
2018-12-29T10:25:34.405Z,1022.23
2018-12-29T10:26:34.390Z,1022.23
2018-12-29T10:27:34.365Z,1022.25
2018-12-29T10:28:34.343Z,1022.23
2018-12-29T10:29:34.317Z,1022.24
2018-12-29T10:30:34.294Z,1022.25
2018-12-29T10:31:34.276Z,1022.22
2018-12-29T10:32:34.253Z,1022.13
2018-12-29T10:33:34.235Z,1022.20
2018-12-29T10:34:34.214Z,1022.13
2018-12-29T10:35:34.202Z,1022.13
2018-12-29T10:36:34.164Z,1022.11
2018-12-29T10:37:34.146Z,1022.14
2018-12-29T10:38:34.118Z,1022.19
2018-12-29T10:39:34.096Z,1022.23
2018-12-29T10:40:34.077Z,1022.23
2018-12-29T10:41:34.055Z,1022.20
2018-12-29T10:42:34.032Z,1022.25
2018-12-29T10:43:34.011Z,1022.31
2018-12-29T10:44:33.988Z,1022.30
2018-12-29T10:45:33.965Z,1022.38
2018-12-29T10:46:33.943Z,1022.38
2018-12-29T10:47:34.737Z,1022.42
2018-12-29T10:48:33.901Z,1022.42
2018-12-29T10:49:33.885Z,1022.43
2018-12-29T10:50:33.862Z,1022.45
2018-12-29T10:51:33.836Z,1022.40
2018-12-29T10:52:33.815Z,1022.51
2018-12-29T10:53:33.790Z,1022.50
2018-12-29T10:54:33.782Z,1022.55
2018-12-29T10:55:33.749Z,1022.48
2018-12-29T10:56:33.730Z,1022.51
2018-12-29T10:57:33.707Z,1022.52
2018-12-29T10:58:33.688Z,1022.48
2018-12-29T10:59:33.668Z,1022.45
2018-12-29T11:00:35.218Z,1022.34
2018-12-29T11:01:33.618Z,1022.34
2018-12-29T11:02:33.598Z,1022.25
2018-12-29T11:03:33.576Z,1022.21
2018-12-29T11:04:33.557Z,1022.15
2018-12-29T11:05:33.542Z,1022.15
2018-12-29T11:06:33.508Z,1022.15
2018-12-29T11:07:33.489Z,1022.06
2018-12-29T11:08:33.474Z,1022.02
2018-12-29T11:09:33.445Z,1022.03
2018-12-29T11:10:33.424Z,1022.02
2018-12-29T11:11:33.402Z,1022.03
2018-12-29T11:12:33.383Z,1021.98
2018-12-29T11:13:33.365Z,1021.96
2018-12-29T11:14:33.335Z,1021.86
2018-12-29T11:15:33.311Z,1021.82
2018-12-29T11:16:33.291Z,1021.78
2018-12-29T11:17:33.270Z,1021.69
2018-12-29T11:18:33.263Z,1021.62
2018-12-29T11:19:33.230Z,1021.69
2018-12-29T11:20:33.206Z,1021.71
2018-12-29T11:21:33.184Z,1021.76
2018-12-29T11:22:33.164Z,1021.73
2018-12-29T11:23:33.137Z,1021.79
2018-12-29T11:24:33.120Z,1021.75
2018-12-29T11:25:33.100Z,1021.79
2018-12-29T11:26:33.072Z,1021.76
2018-12-29T11:27:33.056Z,1021.75
2018-12-29T11:28:33.029Z,1021.76
2018-12-29T11:29:33.014Z,1021.75
2018-12-29T11:30:32.986Z,1021.77
2018-12-29T11:31:32.962Z,1021.72
2018-12-29T11:32:32.940Z,1021.74
2018-12-29T11:33:32.918Z,1021.74
2018-12-29T11:34:32.897Z,1021.77
2018-12-29T11:35:32.876Z,1021.83
2018-12-29T11:36:32.855Z,1021.86
2018-12-29T11:37:32.832Z,1021.88
2018-12-29T11:38:32.810Z,1021.86
2018-12-29T11:39:32.788Z,1021.81
2018-12-29T11:40:32.771Z,1021.67
2018-12-29T11:41:32.747Z,1021.70
2018-12-29T11:42:32.726Z,1021.66
2018-12-29T11:43:32.706Z,1021.64
2018-12-29T11:44:32.684Z,1021.61
2018-12-29T11:45:32.662Z,1021.57
2018-12-29T11:46:32.642Z,1021.57
2018-12-29T11:47:32.618Z,1021.54
2018-12-29T11:48:32.596Z,1021.46
2018-12-29T11:49:32.572Z,1021.42
2018-12-29T11:50:32.557Z,1021.36
2018-12-29T11:51:32.528Z,1021.32
2018-12-29T11:52:32.508Z,1021.20
2018-12-29T11:53:32.489Z,1021.13
2018-12-29T11:54:32.461Z,1020.99
2018-12-29T11:55:32.447Z,1020.91
2018-12-29T11:56:32.421Z,1020.88
2018-12-29T11:57:32.399Z,1020.93
2018-12-29T11:58:32.384Z,1020.96
2018-12-29T11:59:32.365Z,1021.03
2018-12-29T12:00:32.338Z,1021.15
2018-12-29T12:01:32.315Z,1021.18
2018-12-29T12:02:32.294Z,1021.14
2018-12-29T12:03:32.269Z,1021.10
2018-12-29T12:04:32.250Z,1021.02
2018-12-29T12:05:32.227Z,1021.03